createdAt,value
2022-08-12T00:04:37.626Z,21.50
2022-08-12T00:10:59.123Z,21.40
2022-08-12T00:17:31.554Z,21.40
2022-08-12T00:23:52.446Z,21.30
2022-08-12T00:30:13.549Z,21.20
2022-08-12T00:36:34.803Z,21.10
2022-08-12T00:42:41.795Z,21.10
2022-08-12T00:48:45.242Z,21.00
2022-08-12T00:54:52.794Z,20.90
2022-08-12T01:01:04.945Z,20.80
2022-08-12T01:07:44.720Z,20.70
2022-08-12T01:13:49.186Z,20.60
2022-08-12T01:19:54.637Z,20.60
2022-08-12T01:26:00.988Z,20.50
2022-08-12T01:32:10.715Z,20.50
2022-08-12T01:38:16.554Z,20.40
2022-08-12T01:44:20.534Z,20.40
2022-08-12T01:52:15.045Z,20.30
2022-08-12T01:58:11.947Z,20.20
2022-08-12T02:04:39.339Z,20.10
2022-08-12T02:11:17.733Z,20.10
2022-08-12T02:17:55.235Z,20.20
2022-08-12T02:23:58.591Z,20.20
2022-08-12T02:30:01.140Z,20.10
2022-08-12T02:36:04.674Z,20.00
2022-08-12T02:42:10.862Z,19.90
2022-08-12T02:48:19.373Z,19.90
2022-08-12T02:54:23.510Z,19.90
2022-08-12T03:00:26.282Z,19.80
2022-08-12T03:06:38.418Z,19.80
2022-08-12T03:12:49.272Z,19.70
2022-08-12T03:18:54.702Z,19.80
2022-08-12T03:25:02.253Z,19.80
2022-08-12T03:31:06.750Z,19.70
2022-08-12T03:37:11.394Z,19.80
2022-08-12T03:43:39.776Z,19.80
2022-08-12T03:50:00.806Z,19.90
2022-08-12T03:56:21.435Z,20.20
2022-08-12T04:02:25.112Z,20.40
2022-08-12T04:08:27.696Z,20.60
2022-08-12T04:14:30.501Z,20.80
2022-08-12T04:20:32.952Z,21.10
2022-08-12T04:26:36.213Z,21.30
2022-08-12T04:32:43.701Z,21.60
2022-08-12T04:38:46.781Z,22.00
2022-08-12T04:44:48.980Z,22.30
2022-08-12T04:50:51.280Z,22.60
2022-08-12T04:57:03.120Z,22.90
2022-08-12T05:03:07.797Z,23.30
2022-08-12T05:09:11.199Z,23.60
2022-08-12T05:15:27.794Z,23.80
2022-08-12T05:21:32.006Z,24.30
2022-08-12T05:27:34.934Z,24.60
2022-08-12T05:33:41.287Z,25.30
2022-08-12T05:39:43.834Z,26.30
2022-08-12T05:45:46.518Z,26.70
2022-08-12T05:51:48.803Z,27.40
2022-08-12T05:57:55.681Z,28.00
2022-08-12T06:03:58.111Z,33.20
2022-08-12T06:10:01.221Z,36.10
2022-08-12T06:16:03.729Z,37.50
2022-08-12T06:22:06.022Z,38.00
2022-08-12T06:28:17.810Z,38.90
2022-08-12T06:35:24.995Z,39.50
2022-08-12T06:41:02.886Z,38.60
2022-08-12T06:47:05.391Z,39.60
2022-08-12T06:53:09.692Z,39.20
2022-08-12T06:59:15.175Z,39.70
2022-08-12T07:05:24.793Z,40.40
2022-08-12T07:11:29.465Z,40.70
2022-08-12T07:17:38.191Z,40.70
2022-08-12T07:23:42.105Z,41.30
2022-08-12T07:29:59.492Z,41.00
2022-08-12T07:36:12.418Z,41.70
2022-08-12T07:42:14.728Z,41.90
2022-08-12T07:48:17.561Z,42.80
2022-08-12T07:54:20.059Z,42.20
2022-08-12T08:00:22.558Z,42.70
2022-08-12T08:06:25.080Z,42.50
2022-08-12T08:12:47.340Z,41.90
2022-08-12T08:18:50.173Z,42.50
2022-08-12T08:24:57.928Z,42.30
2022-08-12T08:31:00.130Z,41.60
2022-08-12T08:37:07.705Z,41.90
2022-08-12T08:43:13.118Z,42.20
2022-08-12T08:49:16.399Z,41.70
2022-08-12T08:55:24.074Z,41.40
2022-08-12T09:01:37.425Z,42.00
2022-08-12T09:07:58.990Z,42.00
2022-08-12T09:14:18.739Z,42.10
2022-08-12T09:20:27.586Z,41.90
2022-08-12T09:26:32.113Z,41.30
2022-08-12T09:33:05.330Z,40.40
2022-08-12T09:40:06.479Z,41.00
2022-08-12T09:46:19.336Z,40.70
2022-08-12T09:51:55.822Z,40.80
2022-08-12T09:58:44.953Z,41.80
2022-08-12T10:04:20.990Z,41.80
2022-08-12T10:10:25.065Z,41.90
2022-08-12T10:16:39.142Z,40.60
2022-08-12T10:22:41.880Z,41.10
2022-08-12T10:30:02.127Z,40.90
2022-08-12T10:35:38.177Z,39.90
2022-08-12T10:42:00.193Z,39.00
2022-08-12T10:48:19.474Z,39.40
2022-08-12T10:54:27.963Z,39.30
2022-08-12T11:00:35.692Z,39.20
2022-08-12T11:07:08.935Z,38.90
2022-08-12T11:13:16.560Z,38.50
2022-08-12T11:19:22.340Z,39.10
2022-08-12T11:25:24.903Z,38.30
2022-08-12T11:32:01.696Z,37.90
2022-08-12T11:38:05.603Z,38.60
2022-08-12T11:44:35.530Z,38.70
2022-08-12T11:50:34.670Z,38.30
2022-08-12T11:56:59.031Z,37.70
2022-08-12T12:03:02.899Z,38.20
2022-08-12T12:09:08.051Z,38.40
2022-08-12T12:15:12.391Z,37.80
2022-08-12T12:21:17.031Z,39.00
2022-08-12T12:27:20.728Z,39.40
2022-08-12T12:33:57.380Z,38.60
2022-08-12T12:40:00.838Z,39.40
2022-08-12T12:46:03.055Z,41.00
2022-08-12T12:52:19.783Z,41.40
2022-08-12T12:58:23.363Z,39.60
2022-08-12T13:04:25.998Z,35.80
2022-08-12T13:10:36.512Z,33.80
2022-08-12T13:16:43.771Z,32.90
2022-08-12T13:22:47.663Z,32.30
2022-08-12T13:28:55.690Z,33.80
2022-08-12T13:35:04.261Z,33.70
2022-08-12T13:41:39.567Z,33.70
2022-08-12T13:47:58.265Z,33.80
2022-08-12T13:54:09.786Z,33.80
2022-08-12T14:00:14.085Z,33.60
2022-08-12T14:06:17.141Z,33.60
2022-08-12T14:12:24.940Z,33.40
2022-08-12T14:18:30.504Z,33.30
2022-08-12T14:24:40.505Z,32.90
2022-08-12T14:30:59.849Z,32.70
2022-08-12T14:37:07.239Z,32.90
2022-08-12T14:43:15.508Z,32.50
2022-08-12T14:50:37.502Z,32.30
2022-08-12T15:02:10.396Z,32.00
2022-08-12T15:08:22.391Z,31.90
2022-08-12T15:14:30.283Z,31.80
2022-08-12T15:20:38.129Z,31.70
2022-08-12T15:26:42.601Z,31.60
2022-08-12T15:32:48.591Z,31.50
2022-08-12T15:38:51.266Z,31.50
2022-08-12T15:44:53.769Z,31.20
2022-08-12T15:50:57.843Z,30.70
2022-08-12T15:57:00.181Z,30.40
2022-08-12T16:03:14.211Z,30.20
2022-08-12T16:09:31.797Z,30.10
2022-08-12T16:16:01.581Z,30.00
2022-08-12T16:22:05.222Z,29.80
2022-08-12T16:28:09.767Z,29.50
2022-08-12T16:34:25.859Z,29.30
2022-08-12T16:40:46.301Z,29.00
2022-08-12T16:46:55.539Z,28.80
2022-08-12T16:53:03.340Z,28.60
2022-08-12T16:59:15.809Z,28.40
2022-08-12T17:05:19.870Z,28.30
2022-08-12T17:11:24.969Z,28.10
2022-08-12T17:17:39.343Z,28.00
2022-08-12T17:23:53.374Z,27.80
2022-08-12T17:30:03.227Z,27.70
2022-08-12T17:36:07.578Z,27.60
2022-08-12T17:42:32.931Z,27.40
2022-08-12T17:48:38.650Z,27.30
2022-08-12T17:54:41.447Z,27.20
2022-08-12T18:00:47.015Z,27.10
2022-08-12T18:06:50.597Z,26.90
2022-08-12T18:12:53.867Z,26.80
2022-08-12T18:18:59.875Z,26.70
2022-08-12T18:26:13.062Z,26.60
2022-08-12T18:31:44.386Z,26.50
2022-08-12T18:37:57.572Z,26.30
2022-08-12T18:44:09.729Z,26.20
2022-08-12T18:50:15.544Z,26.20
2022-08-12T18:56:33.224Z,26.10
2022-08-12T19:02:40.127Z,26.10
2022-08-12T19:08:47.065Z,26.00
2022-08-12T19:14:52.057Z,25.90
2022-08-12T19:21:16.027Z,26.00
2022-08-12T19:27:19.516Z,25.80
2022-08-12T19:33:24.102Z,25.80
2022-08-12T19:39:30.005Z,25.70
2022-08-12T19:45:43.619Z,25.60
2022-08-12T19:51:51.356Z,25.40
2022-08-12T19:58:01.427Z,25.40
2022-08-12T20:04:06.306Z,25.30
2022-08-12T20:10:16.515Z,25.30
2022-08-12T20:16:50.817Z,25.40
2022-08-12T20:22:48.944Z,24.80
2022-08-12T20:28:51.632Z,24.60
2022-08-12T20:34:54.642Z,24.50
2022-08-12T20:40:56.892Z,24.50
2022-08-12T20:47:18.748Z,24.40
2022-08-12T20:53:27.752Z,24.30
2022-08-12T20:59:47.961Z,24.30
2022-08-12T21:06:13.409Z,24.20
2022-08-12T21:12:28.412Z,24.10
2022-08-12T21:18:36.023Z,24.00
2022-08-12T21:24:46.810Z,24.00
2022-08-12T21:31:11.611Z,23.90
2022-08-12T21:37:26.409Z,23.90
2022-08-12T21:43:44.756Z,23.90
2022-08-12T21:49:55.631Z,23.80
2022-08-12T21:56:06.154Z,23.70
2022-08-12T22:02:30.959Z,23.70
2022-08-12T22:08:33.698Z,23.60
2022-08-12T22:14:35.902Z,23.50
2022-08-12T22:20:40.561Z,23.50
2022-08-12T22:26:47.529Z,23.40
2022-08-12T22:32:51.285Z,23.30
2022-08-12T22:38:58.976Z,23.30
2022-08-12T22:45:23.165Z,23.20
2022-08-12T22:51:25.916Z,23.20
2022-08-12T22:57:49.049Z,23.10
2022-08-12T23:03:54.012Z,23.10
2022-08-12T23:09:56.809Z,23.00
2022-08-12T23:16:01.194Z,23.00
2022-08-12T23:22:36.398Z,22.90
2022-08-12T23:28:53.255Z,22.80
2022-08-12T23:34:56.265Z,22.80
2022-08-12T23:41:00.038Z,22.70
2022-08-12T23:47:10.543Z,22.70
2022-08-12T23:53:22.770Z,22.60
2022-08-12T23:59:29.984Z,22.60
